Time;durP1;ratioP1;P1;durP2;ratioP2;P2;SDS_P1;SDS_P2;PMS_P1;PMS_P2;Temp;Humidity;BMP_temperature;BMP_pressure;BME280_temperature;BME280_humidity;BME280_pressure;Samples;Min_cycle;Max_cycle;Signal;HPM_P1;HPM_P2
2020/11/16 00:07:21;;;;;;;46.1;35.9;;;;;;;1.1;89.0498;98643.12;;;;
2020/11/16 00:17:19;;;;;;;51.5;34.8;;;;;;;1.17;89.74512;98653.55;;;;
2020/11/16 00:27:16;;;;;;;42.6;35.1;;;;;;;1.08;89.1123;98642.54;;;;
2020/11/16 00:37:14;;;;;;;41.8;33;;;;;;;1.01;89.14355;98642.72;;;;
2020/11/16 00:47:11;;;;;;;39.7;30.5;;;;;;;1.03;89.0791;98647.8;;;;
2020/11/16 00:57:09;;;;;;;45.3;31.7;;;;;;;1.05;88.83008;98635.08;;;;
2020/11/16 01:07:07;;;;;;;47.6;31.7;;;;;;;1.07;89.63672;98632.19;;;;
2020/11/16 01:17:04;;;;;;;42.2;33.4;;;;;;;1.11;89.74316;98635.97;;;;
2020/11/16 01:27:02;;;;;;;47.3;35.6;;;;;;;1.1;89.95215;98627.19;;;;
2020/11/16 01:36:59;;;;;;;50.9;36.5;;;;;;;1.16;90.01758;98630.7;;;;
2020/11/16 01:46:57;;;;;;;42.5;33;;;;;;;1.11;89.29199;98625.34;;;;
2020/11/16 01:56:55;;;;;;;46.3;32.8;;;;;;;0.95;89.37207;98625.13;;;;
2020/11/16 02:06:52;;;;;;;42.8;31.7;;;;;;;0.9;89.4707;98603.82;;;;
2020/11/16 02:16:50;;;;;;;49.7;36.6;;;;;;;0.87;90.38867;98601.66;;;;
2020/11/16 02:26:47;;;;;;;52.5;33.5;;;;;;;0.7;89.92383;98600.89;;;;
2020/11/16 02:36:45;;;;;;;53.3;38;;;;;;;0.86;90.84766;98592.12;;;;
2020/11/16 02:46:42;;;;;;;45;36;;;;;;;0.79;90.80859;98588.83;;;;
2020/11/16 02:56:40;;;;;;;35.3;28.9;;;;;;;0.78;90.4668;98578.45;;;;
2020/11/16 03:06:37;;;;;;;37.4;29.1;;;;;;;0.67;90.11426;98585.46;;;;
2020/11/16 03:16:35;;;;;;;34.8;29.2;;;;;;;0.54;89.89063;98580.5;;;;
2020/11/16 03:26:32;;;;;;;30.4;26.7;;;;;;;0.4;89.5293;98576.58;;;;
2020/11/16 03:36:30;;;;;;;33.7;26.9;;;;;;;0.27;89.78809;98574.26;;;;
2020/11/16 03:46:27;;;;;;;31.2;20.8;;;;;;;0.19;90.69238;98566.7;;;;
2020/11/16 03:56:25;;;;;;;41.3;25;;;;;;;0.07;89.82422;98558.81;;;;
2020/11/16 04:06:22;;;;;;;29;26.1;;;;;;;-0.08;90.02246;98540.85;;;;
2020/11/16 04:16:20;;;;;;;32.5;23.9;;;;;;;-0.22;89.3125;98546.69;;;;
2020/11/16 04:26:18;;;;;;;35.2;22.7;;;;;;;-0.36;89.38086;98553.32;;;;
2020/11/16 04:36:15;;;;;;;34.9;27.8;;;;;;;-0.47;89.46875;98539.09;;;;
2020/11/16 04:46:12;;;;;;;33.3;24.7;;;;;;;-0.51;89.96484;98535.31;;;;
2020/11/16 04:56:11;;;;;;;34.3;28;;;;;;;-0.48;90.63867;98536.67;;;;
2020/11/16 05:06:08;;;;;;;28.6;20.4;;;;;;;-0.4;91.01855;98523.88;;;;
2020/11/16 05:16:08;;;;;;;29.6;22.1;;;;;;;-0.31;91.93359;98519;;;;
2020/11/16 05:26:02;;;;;;;32.2;21.6;;;;;;;-0.42;90.66211;98512.73;;;;
2020/11/16 05:35:59;;;;;;;26.5;17.6;;;;;;;-0.47;90.70605;98539.09;;;;
2020/11/16 05:45:56;;;;;;;38.8;30.5;;;;;;;-0.62;90.44336;98541.45;;;;
2020/11/16 05:55:56;;;;;;;38.6;25.4;;;;;;;-0.67;90.03125;98544.83;;;;
2020/11/16 06:05:51;;;;;;;19.9;17.8;;;;;;;-0.53;91.35156;98559.39;;;;
2020/11/16 06:15:49;;;;;;;21.9;17;;;;;;;-0.47;90.69531;98557.63;;;;
2020/11/16 06:25:49;;;;;;;25.7;17.3;;;;;;;-0.4;90.5918;98576.81;;;;
2020/11/16 06:35:43;;;;;;;45.5;23.3;;;;;;;-0.33;90.71387;98574.83;;;;
2020/11/16 06:45:40;;;;;;;48.6;36.9;;;;;;;-0.09;90.67969;98586.91;;;;
2020/11/16 06:55:38;;;;;;;45.7;33;;;;;;;0.2;90.93555;98610.72;;;;
2020/11/16 07:05:36;;;;;;;43.1;32.6;;;;;;;0.54;91.03223;98620.28;;;;
2020/11/16 07:15:33;;;;;;;43.2;35;;;;;;;0.78;90.47754;98618.24;;;;
2020/11/16 07:25:31;;;;;;;43.8;32.8;;;;;;;1.14;90.7832;98638.13;;;;
2020/11/16 07:35:28;;;;;;;39.2;30.5;;;;;;;1.53;90.68945;98630.92;;;;
2020/11/16 07:45:28;;;;;;;41;28.8;;;;;;;1.99;90.73438;98633.81;;;;
2020/11/16 07:55:22;;;;;;;38.2;25.7;;;;;;;2.44;90.25488;98636.09;;;;
2020/11/16 08:05:21;;;;;;;28.7;24;;;;;;;3;89.66699;98645.28;;;;
2020/11/16 08:15:18;;;;;;;24.4;21.1;;;;;;;3.51;87.71582;98658.86;;;;
2020/11/16 08:25:16;;;;;;;21.8;18.8;;;;;;;4.04;88.36523;98660.38;;;;
2020/11/16 08:35:14;;;;;;;27.8;20.2;;;;;;;4.57;87.13184;98677.81;;;;
2020/11/16 08:45:08;;;;;;;32.8;26.3;;;;;;;5.14;87.01367;98684.75;;;;
2020/11/16 08:55:06;;;;;;;29.7;23.6;;;;;;;5.59;84.00195;98679.27;;;;
2020/11/16 09:05:04;;;;;;;29.1;24.2;;;;;;;6.1;83.05273;98687.92;;;;
2020/11/16 09:15:02;;;;;;;28;23.1;;;;;;;6.37;80.95117;98696.33;;;;
2020/11/16 09:25:01;;;;;;;27.4;21.7;;;;;;;6.88;80.74512;98690.59;;;;
2020/11/16 09:34:59;;;;;;;26.8;22.7;;;;;;;7.48;80.16211;98706.13;;;;
2020/11/16 09:44:57;;;;;;;27.2;23.3;;;;;;;7.94;78.11914;98711.78;;;;
2020/11/16 09:54:55;;;;;;;42.4;22.8;;;;;;;8.41;76.33887;98710.11;;;;
2020/11/16 10:04:54;;;;;;;26.7;22.5;;;;;;;8.78;74.52637;98703.94;;;;
2020/11/16 10:14:52;;;;;;;32.5;24.7;;;;;;;9.29;72.79102;98701.2;;;;
2020/11/16 10:24:53;;;;;;;36.7;28.9;;;;;;;9.57;71.73242;98713.61;;;;
2020/11/16 10:34:49;;;;;;;45.5;33.9;;;;;;;9.93;70.08691;98708.31;;;;
2020/11/16 10:44:48;;;;;;;42.9;30.2;;;;;;;10.11;69.36035;98702.83;;;;
2020/11/16 10:54:47;;;;;;;39.1;28.6;;;;;;;9.97;70.19531;98695.85;;;;
2020/11/16 11:04:47;;;;;;;29.8;24.1;;;;;;;10.19;71.74316;98687.09;;;;
2020/11/16 11:14:47;;;;;;;29.5;23.7;;;;;;;10.22;70.29102;98681.09;;;;
2020/11/16 11:24:42;;;;;;;32.7;24.1;;;;;;;10.27;70.05078;98700.66;;;;
2020/11/16 11:34:41;;;;;;;36.1;23.9;;;;;;;10.33;71.47363;98693.25;;;;
2020/11/16 11:44:40;;;;;;;32.1;25.5;;;;;;;10.41;71.21484;98696;;;;
2020/11/16 11:54:39;;;;;;;29.9;25.7;;;;;;;10.8;70.02441;98695.38;;;;
2020/11/16 12:04:37;;;;;;;36.3;25.8;;;;;;;10.74;69.96875;98706.59;;;;
2020/11/16 12:14:36;;;;;;;34;25;;;;;;;10.73;68.55371;98713.88;;;;
2020/11/16 12:24:35;;;;;;;29.8;23.9;;;;;;;10.89;68.2959;98728.62;;;;
2020/11/16 12:34:34;;;;;;;36.4;26.9;;;;;;;10.96;68.54297;98744.37;;;;
2020/11/16 12:44:32;;;;;;;33.6;24.5;;;;;;;10.9;68.14941;98749.06;;;;
2020/11/16 12:54:31;;;;;;;31.1;26.9;;;;;;;10.74;67.81934;98747.03;;;;
2020/11/16 13:04:30;;;;;;;31;27.8;;;;;;;10.64;70.12305;98761.53;;;;
2020/11/16 13:14:29;;;;;;;43.4;34.5;;;;;;;10.54;69.49609;98765.26;;;;
2020/11/16 13:24:29;;;;;;;67.2;52.3;;;;;;;10.45;70.11328;98764.36;;;;
2020/11/16 13:34:26;;;;;;;37.3;32.8;;;;;;;10.21;69.94043;98771.86;;;;
2020/11/16 13:44:25;;;;;;;46.1;28;;;;;;;10.03;70.73535;98780.84;;;;
2020/11/16 13:54:24;;;;;;;41.9;37;;;;;;;9.92;70.8418;98787.5;;;;
2020/11/16 14:04:22;;;;;;;36;31.4;;;;;;;9.8;71.48828;98793.36;;;;
2020/11/16 14:14:21;;;;;;;50;37.7;;;;;;;9.7;72.47559;98809.7;;;;
2020/11/16 14:24:20;;;;;;;41.5;29.7;;;;;;;9.55;72.91309;98818.02;;;;
2020/11/16 14:34:18;;;;;;;35.2;28.2;;;;;;;9.46;73.44824;98838.63;;;;
2020/11/16 14:44:17;;;;;;;32.3;25.9;;;;;;;9.34;74.38574;98849.03;;;;
2020/11/16 14:54:15;;;;;;;37.5;26.7;;;;;;;9.17;75.12207;98865.69;;;;
2020/11/16 15:04:14;;;;;;;32.5;26.9;;;;;;;9.02;75.15234;98873.98;;;;
2020/11/16 15:14:12;;;;;;;47.6;37.2;;;;;;;9.02;75.26465;98884.74;;;;
2020/11/16 15:24:11;;;;;;;34.8;27.5;;;;;;;8.86;74.96875;98905.63;;;;
2020/11/16 15:34:09;;;;;;;35;24.5;;;;;;;8.76;74.9502;98913.02;;;;
2020/11/16 15:44:08;;;;;;;29;22.9;;;;;;;8.72;75.31348;98911.98;;;;
2020/11/16 15:54:06;;;;;;;36.4;29.7;;;;;;;8.56;77.00586;98917.55;;;;
2020/11/16 16:04:05;;;;;;;34.2;28.4;;;;;;;8.52;77.26758;98934.52;;;;
2020/11/16 16:14:05;;;;;;;38;28.9;;;;;;;8.41;77.71973;98957.19;;;;
2020/11/16 16:24:02;;;;;;;33.9;30;;;;;;;8.39;77.60449;98973.61;;;;
2020/11/16 16:34:00;;;;;;;44;32.1;;;;;;;8.36;77.67676;98986.8;;;;
2020/11/16 16:43:59;;;;;;;39.2;34.5;;;;;;;8.33;77.81738;98998.11;;;;
2020/11/16 16:53:57;;;;;;;40.6;36.2;;;;;;;8.32;77.88379;99004.55;;;;
2020/11/16 17:03:56;;;;;;;41.5;32.7;;;;;;;8.29;77.87891;99027.41;;;;
2020/11/16 17:13:54;;;;;;;49;36.6;;;;;;;8.26;78.1748;99035.2;;;;
2020/11/16 17:23:52;;;;;;;48.8;40.5;;;;;;;8.22;78.23438;99031.47;;;;
2020/11/16 17:33:51;;;;;;;49.7;38.1;;;;;;;8.21;78.34668;99044.09;;;;
2020/11/16 17:43:49;;;;;;;44;39.2;;;;;;;8.22;78.51465;99042.2;;;;
2020/11/16 17:53:47;;;;;;;52.7;37.2;;;;;;;8.19;78.71191;99048.14;;;;
2020/11/16 18:03:46;;;;;;;55.6;42.8;;;;;;;8.19;78.72266;99048.91;;;;
2020/11/16 18:13:44;;;;;;;55.1;41.3;;;;;;;8.19;78.76758;99058.88;;;;
2020/11/16 18:23:43;;;;;;;47.4;42.3;;;;;;;8.23;78.33691;99065.27;;;;
2020/11/16 18:33:41;;;;;;;52.2;40.9;;;;;;;8.13;78.8252;99087.63;;;;
2020/11/16 18:43:39;;;;;;;51;37.1;;;;;;;8.13;78.71191;99089.5;;;;
2020/11/16 18:53:38;;;;;;;37.9;32.4;;;;;;;8.09;78.73926;99097.31;;;;
2020/11/16 19:03:36;;;;;;;42;37.6;;;;;;;8.08;79.06445;99109.96;;;;
2020/11/16 19:13:34;;;;;;;54.6;40.9;;;;;;;8;79.25098;99121.27;;;;
2020/11/16 19:23:33;;;;;;;45.9;40.8;;;;;;;7.96;79.52344;99133.64;;;;
2020/11/16 19:33:31;;;;;;;61.3;41;;;;;;;7.9;79.31055;99148.17;;;;
2020/11/16 19:43:30;;;;;;;44.4;34.9;;;;;;;7.86;79.53711;99170.45;;;;
2020/11/16 19:53:28;;;;;;;48.5;35.4;;;;;;;7.83;79.43164;99169.13;;;;
2020/11/16 20:03:26;;;;;;;86;68.4;;;;;;;7.82;79.83301;99194.35;;;;
2020/11/16 20:13:25;;;;;;;55.2;34.3;;;;;;;7.77;79.75586;99201.63;;;;
2020/11/16 20:23:23;;;;;;;42.2;31.3;;;;;;;7.66;80.10645;99210.78;;;;
2020/11/16 20:33:22;;;;;;;42.4;34.7;;;;;;;7.57;80.46973;99215.89;;;;
2020/11/16 20:43:20;;;;;;;42.3;36.2;;;;;;;7.51;80.69531;99225.83;;;;
2020/11/16 20:53:18;;;;;;;49.6;36.8;;;;;;;7.47;80.63086;99240.05;;;;
2020/11/16 21:03:17;;;;;;;47.6;35.8;;;;;;;7.48;80.45313;99245.16;;;;
2020/11/16 21:13:15;;;;;;;47.4;34.2;;;;;;;7.47;80.29688;99235.49;;;;
2020/11/16 21:23:13;;;;;;;35.1;31.3;;;;;;;7.37;80.6123;99256.97;;;;
2020/11/16 21:33:18;;;;;;;49;32.6;;;;;;;7.34;80.41797;99268.23;;;;
2020/11/16 21:43:10;;;;;;;47.5;36.4;;;;;;;7.3;80.46484;99271.72;;;;
2020/11/16 21:53:08;;;;;;;46.1;35.8;;;;;;;7.28;80.49414;99281.91;;;;
2020/11/16 22:03:07;;;;;;;47;35.5;;;;;;;7.28;80.61719;99281.91;;;;
2020/11/16 22:13:06;;;;;;;50.9;35.9;;;;;;;7.29;80.47461;99302.3;;;;
2020/11/16 22:23:06;;;;;;;50.9;36.4;;;;;;;7.3;80.3418;99298.52;;;;
2020/11/16 22:33:02;;;;;;;44.9;34.2;;;;;;;7.25;80.46582;99304.71;;;;
2020/11/16 22:43:00;;;;;;;49.6;36.3;;;;;;;7.31;80.28809;99310.86;;;;
2020/11/16 22:52:59;;;;;;;42.6;31.7;;;;;;;7.3;80.36426;99322.66;;;;
2020/11/16 23:02:57;;;;;;;43.3;37.6;;;;;;;7.19;80.85938;99311.12;;;;
2020/11/16 23:12:55;;;;;;;53;37.4;;;;;;;7.16;81.0332;99330.42;;;;
2020/11/16 23:22:54;;;;;;;50.1;34.8;;;;;;;7.22;80.60645;99325.89;;;;
2020/11/16 23:32:52;;;;;;;42.1;32.2;;;;;;;7.2;80.71387;99325.33;;;;
2020/11/16 23:42:50;;;;;;;48.9;31.8;;;;;;;7.24;80.19824;99327.22;;;;
2020/11/16 23:52:49;;;;;;;44.5;33.4;;;;;;;7.2;80.19922;99336.05;;;;
